createdAt,value
2018-02-20T00:00:45.863Z,101359
2018-02-20T00:03:14.140Z,101358
2018-02-20T00:05:42.275Z,101363
2018-02-20T00:08:11.174Z,101357
2018-02-20T00:10:40.194Z,101357
2018-02-20T00:13:08.362Z,101357
2018-02-20T00:15:36.505Z,101363
2018-02-20T00:18:05.446Z,101358
2018-02-20T00:20:33.600Z,101366
2018-02-20T00:23:04.539Z,101349
2018-02-20T00:25:32.670Z,101351
2018-02-20T00:28:01.598Z,101357
2018-02-20T00:30:29.729Z,101363
2018-02-20T00:32:57.901Z,101355
2018-02-20T00:35:26.035Z,101369
2018-02-20T00:37:54.198Z,101365
2018-02-20T00:40:22.337Z,101362
2018-02-20T00:42:51.270Z,101359
2018-02-20T00:45:19.425Z,101356
2018-02-20T00:47:47.602Z,101357
2018-02-20T00:50:15.776Z,101364
2018-02-20T00:52:43.911Z,101367
2018-02-20T00:55:13.458Z,101364
2018-02-20T00:57:41.626Z,101357
2018-02-20T01:00:09.795Z,101367
2018-02-20T01:02:37.949Z,101368
2018-02-20T01:05:06.087Z,101367
2018-02-20T01:07:34.241Z,101363
2018-02-20T01:10:02.369Z,101366
2018-02-20T01:12:30.578Z,101369
2018-02-20T01:14:58.721Z,101364
2018-02-20T01:17:26.883Z,101360
2018-02-20T01:19:55.013Z,101359
2018-02-20T01:22:23.181Z,101368
2018-02-20T01:24:51.317Z,101369
2018-02-20T01:27:19.451Z,101361
2018-02-20T01:29:48.854Z,101361
2018-02-20T01:32:17.750Z,101362
2018-02-20T01:34:46.671Z,101364
2018-02-20T01:37:14.848Z,101359
2018-02-20T01:39:42.985Z,101361
2018-02-20T01:42:11.889Z,101366
2018-02-20T01:44:40.042Z,101365
2018-02-20T01:47:08.177Z,101359
2018-02-20T01:49:36.351Z,101363
2018-02-20T01:52:04.486Z,101367
2018-02-20T01:54:32.645Z,101363
2018-02-20T01:57:01.549Z,101362
2018-02-20T01:59:29.682Z,101368
2018-02-20T02:01:57.838Z,101373
2018-02-20T02:04:25.974Z,101368
2018-02-20T02:06:54.525Z,101363
2018-02-20T02:09:23.429Z,101350
2018-02-20T02:11:51.602Z,101360
2018-02-20T02:14:19.803Z,101352
2018-02-20T02:16:47.953Z,101351
2018-02-20T02:19:16.153Z,101359
2018-02-20T02:21:44.289Z,101343
2018-02-20T02:24:13.223Z,101345
2018-02-20T02:26:42.105Z,101350
2018-02-20T02:29:10.244Z,101345
2018-02-20T02:31:38.438Z,101346
2018-02-20T02:34:06.574Z,101341
2018-02-20T02:36:36.087Z,101343
2018-02-20T02:39:04.271Z,101346
2018-02-20T02:41:32.439Z,101347
2018-02-20T02:44:00.581Z,101346
2018-02-20T02:46:29.497Z,101343
2018-02-20T02:48:58.445Z,101342
2018-02-20T02:51:26.687Z,101340
2018-02-20T02:53:54.874Z,101342
2018-02-20T02:56:23.031Z,101351
2018-02-20T02:58:51.206Z,101350
2018-02-20T03:01:19.602Z,101343
2018-02-20T03:03:48.039Z,101359
2018-02-20T03:06:16.240Z,101351
2018-02-20T03:08:44.420Z,101342
2018-02-20T03:11:12.568Z,101340
2018-02-20T03:13:40.757Z,101341
2018-02-20T03:16:08.914Z,101343
2018-02-20T03:18:37.045Z,101345
2018-02-20T03:21:05.281Z,101341
2018-02-20T03:23:33.434Z,101339
2018-02-20T03:26:01.571Z,101346
2018-02-20T03:28:29.793Z,101338
2018-02-20T03:30:57.960Z,101343
2018-02-20T03:33:26.129Z,101345
2018-02-20T03:35:54.310Z,101343
2018-02-20T03:38:22.469Z,101342
2018-02-20T03:40:50.602Z,101339
2018-02-20T03:43:19.547Z,101345
2018-02-20T03:45:47.678Z,101339
2018-02-20T03:48:16.606Z,101342
2018-02-20T03:50:44.738Z,101340
2018-02-20T03:53:13.658Z,101341
2018-02-20T03:55:41.850Z,101334
2018-02-20T03:58:10.024Z,101347
2018-02-20T04:00:38.162Z,101340
2018-02-20T04:03:07.182Z,101345
2018-02-20T04:05:35.318Z,101345
2018-02-20T04:08:04.226Z,101349
2018-02-20T04:10:32.380Z,101343
2018-02-20T04:13:01.414Z,101338
2018-02-20T04:15:29.589Z,101345
2018-02-20T04:17:57.746Z,101343
2018-02-20T04:20:25.919Z,101344
2018-02-20T04:22:54.078Z,101347
2018-02-20T04:25:22.627Z,101345
2018-02-20T04:27:50.781Z,101348
2018-02-20T04:30:18.910Z,101350
2018-02-20T04:32:47.073Z,101344
2018-02-20T04:35:16.003Z,101352
2018-02-20T04:37:44.166Z,101345
2018-02-20T04:40:12.323Z,101348
2018-02-20T04:42:40.504Z,101342
2018-02-20T04:45:08.649Z,101335
2018-02-20T04:47:37.590Z,101337
2018-02-20T04:50:06.343Z,101340
2018-02-20T04:52:34.482Z,101337
2018-02-20T04:55:02.638Z,101331
2018-02-20T04:57:30.779Z,101339
2018-02-20T04:59:58.987Z,101342
2018-02-20T05:02:27.231Z,101349
2018-02-20T05:04:55.366Z,101356
2018-02-20T05:07:24.294Z,101346
2018-02-20T05:09:52.426Z,101350
2018-02-20T05:12:20.913Z,101355
2018-02-20T05:14:49.074Z,101356
2018-02-20T05:17:17.989Z,101346
2018-02-20T05:19:46.187Z,101352
2018-02-20T05:22:14.326Z,101344
2018-02-20T05:24:42.461Z,101344
2018-02-20T05:27:10.617Z,101363
2018-02-20T05:29:38.755Z,101356
2018-02-20T05:32:06.911Z,101368
2018-02-20T05:34:35.073Z,101357
2018-02-20T05:37:04.620Z,101360
2018-02-20T05:39:33.614Z,101362
2018-02-20T05:42:01.764Z,101370
2018-02-20T05:44:29.930Z,101374
2018-02-20T05:46:58.075Z,101381
2018-02-20T05:49:26.978Z,101382
2018-02-20T05:51:55.906Z,101375
2018-02-20T05:54:24.045Z,101380
2018-02-20T05:56:52.969Z,101382
2018-02-20T05:59:21.106Z,101375
2018-02-20T06:01:50.052Z,101374
2018-02-20T06:04:18.202Z,101377
2018-02-20T06:06:46.354Z,101376
2018-02-20T06:09:14.525Z,101364
2018-02-20T06:11:42.659Z,101371
2018-02-20T06:14:10.794Z,101373
2018-02-20T06:16:38.977Z,101379
2018-02-20T06:19:07.110Z,101368
2018-02-20T06:21:35.274Z,101378
2018-02-20T06:24:04.174Z,101381
2018-02-20T06:26:32.318Z,101373
2018-02-20T06:29:00.590Z,101372
2018-02-20T06:31:28.821Z,101377
2018-02-20T06:33:56.980Z,101373
2018-02-20T06:36:25.117Z,101384
2018-02-20T06:38:53.272Z,101377
2018-02-20T06:41:21.468Z,101379
2018-02-20T06:43:50.388Z,101365
2018-02-20T06:46:18.554Z,101382
2018-02-20T06:48:46.694Z,101392
2018-02-20T06:51:14.854Z,101387
2018-02-20T06:53:42.987Z,101387
2018-02-20T06:56:11.154Z,101394
2018-02-20T06:58:39.622Z,101390
2018-02-20T07:01:07.814Z,101394
2018-02-20T07:03:36.045Z,101396
2018-02-20T07:06:04.990Z,101396
2018-02-20T07:08:33.180Z,101392
2018-02-20T07:11:01.329Z,101398
2018-02-20T07:13:29.484Z,101395
2018-02-20T07:15:57.614Z,101407
2018-02-20T07:18:25.781Z,101393
2018-02-20T07:20:53.917Z,101393
2018-02-20T07:23:22.098Z,101392
2018-02-20T07:25:50.374Z,101398
2018-02-20T07:28:18.505Z,101411
2018-02-20T07:30:47.433Z,101411
2018-02-20T07:33:15.578Z,101413
2018-02-20T07:35:43.744Z,101410
2018-02-20T07:38:12.705Z,101406
2018-02-20T07:40:41.631Z,101409
2018-02-20T07:43:09.798Z,101415
2018-02-20T07:45:38.706Z,101401
2018-02-20T07:48:07.104Z,101407
2018-02-20T07:50:35.371Z,101414
2018-02-20T07:53:03.531Z,101406
2018-02-20T07:55:31.705Z,101412
2018-02-20T07:57:59.895Z,101407
2018-02-20T08:00:28.070Z,101414
2018-02-20T08:02:56.413Z,101408
2018-02-20T08:05:24.607Z,101405
2018-02-20T08:07:52.794Z,101412
2018-02-20T08:10:20.925Z,101418
2018-02-20T08:12:50.189Z,101417
2018-02-20T08:15:18.322Z,101413
2018-02-20T08:17:46.454Z,101417
2018-02-20T08:20:15.373Z,101413
2018-02-20T08:22:43.515Z,101416
2018-02-20T08:25:11.977Z,101422
2018-02-20T08:27:40.155Z,101415
2018-02-20T08:30:08.290Z,101418
2018-02-20T08:32:36.455Z,101423
2018-02-20T08:35:04.591Z,101410
2018-02-20T08:37:33.510Z,101428
2018-02-20T08:40:01.699Z,101419
2018-02-20T08:42:29.907Z,101417
2018-02-20T08:44:58.019Z,101420
2018-02-20T08:47:26.229Z,101415
2018-02-20T08:49:54.678Z,101418
2018-02-20T08:52:22.866Z,101411
2018-02-20T08:54:51.042Z,101413
2018-02-20T08:57:19.202Z,101413
2018-02-20T08:59:47.511Z,101408
2018-02-20T09:02:15.711Z,101412
2018-02-20T09:04:43.857Z,101414
2018-02-20T09:07:12.046Z,101405
2018-02-20T09:09:40.174Z,101410
2018-02-20T09:12:08.344Z,101397
2018-02-20T09:14:36.484Z,101410
2018-02-20T09:17:05.395Z,101401
2018-02-20T09:19:33.562Z,101396
2018-02-20T09:22:01.703Z,101395
2018-02-20T09:24:29.964Z,101396
2018-02-20T09:26:58.150Z,101403
2018-02-20T09:29:26.305Z,101400
2018-02-20T09:31:54.465Z,101395
2018-02-20T09:34:22.629Z,101397
2018-02-20T09:36:51.170Z,101392
2018-02-20T09:39:20.086Z,101396
2018-02-20T09:41:48.257Z,101394
2018-02-20T09:44:16.402Z,101397
2018-02-20T09:46:45.417Z,101399
2018-02-20T09:49:13.586Z,101405
2018-02-20T09:51:41.754Z,101397
2018-02-20T09:54:09.974Z,101396
2018-02-20T09:56:38.126Z,101399
2018-02-20T09:59:06.271Z,101395
2018-02-20T10:01:34.438Z,101392
2018-02-20T10:04:02.584Z,101398
2018-02-20T10:06:30.770Z,101397
2018-02-20T10:08:59.315Z,101395
2018-02-20T10:11:28.242Z,101394
2018-02-20T10:13:57.182Z,101391
2018-02-20T10:16:26.154Z,101393
2018-02-20T10:18:54.302Z,101390
2018-02-20T10:21:23.231Z,101402
2018-02-20T10:23:51.372Z,101403
2018-02-20T10:26:20.277Z,101396
2018-02-20T10:28:48.458Z,101404
2018-02-20T10:31:16.593Z,101402
2018-02-20T10:33:44.733Z,101400
2018-02-20T10:36:12.995Z,101400
2018-02-20T10:38:41.142Z,101400
2018-02-20T10:41:09.295Z,101399
2018-02-20T10:43:38.246Z,101400
2018-02-20T10:46:06.398Z,101398
2018-02-20T10:48:34.547Z,101399
2018-02-20T10:51:02.722Z,101401
2018-02-20T10:53:30.894Z,101403
2018-02-20T10:55:59.038Z,101400
2018-02-20T10:58:27.424Z,101394
2018-02-20T11:00:56.341Z,101393
2018-02-20T11:03:24.494Z,101391
2018-02-20T11:05:53.439Z,101392
2018-02-20T11:08:21.594Z,101391
2018-02-20T11:10:49.742Z,101381
2018-02-20T11:13:17.940Z,101384
2018-02-20T11:15:46.111Z,101395
2018-02-20T11:18:14.280Z,101386
2018-02-20T11:20:42.455Z,101392
2018-02-20T11:23:11.162Z,101389
2018-02-20T11:25:39.382Z,101389
2018-02-20T11:28:07.594Z,101389
2018-02-20T11:30:35.774Z,101390
2018-02-20T11:33:03.914Z,101387
2018-02-20T11:35:32.733Z,101392
2018-02-20T11:38:00.923Z,101394
2018-02-20T11:40:29.099Z,101405
2018-02-20T11:42:57.328Z,101388
2018-02-20T11:45:25.474Z,101396
2018-02-20T11:47:54.431Z,101391
2018-02-20T11:50:23.111Z,101388
2018-02-20T11:52:51.888Z,101388
2018-02-20T11:55:20.063Z,101383
2018-02-20T11:57:48.323Z,101385
2018-02-20T12:00:16.845Z,101388
2018-02-20T12:02:44.989Z,101389
2018-02-20T12:05:13.150Z,101380
2018-02-20T12:07:41.293Z,101376
2018-02-20T12:10:10.290Z,101381
2018-02-20T12:12:38.462Z,101378
2018-02-20T12:15:06.605Z,101379
2018-02-20T12:17:34.776Z,101379
2018-02-20T12:20:03.288Z,101384
2018-02-20T12:22:32.315Z,101380
2018-02-20T12:25:00.623Z,101374
2018-02-20T12:27:28.794Z,101369
2018-02-20T12:29:57.034Z,101371
2018-02-20T12:32:25.414Z,101379
2018-02-20T12:34:54.176Z,101377
2018-02-20T12:37:22.370Z,101388
2018-02-20T12:39:50.513Z,101391
2018-02-20T12:42:19.413Z,101395
2018-02-20T12:44:47.606Z,101392
2018-02-20T12:47:15.747Z,101391
2018-02-20T12:49:44.649Z,101398
2018-02-20T12:52:12.834Z,101381
2018-02-20T12:54:41.010Z,101396
2018-02-20T12:57:09.199Z,101389
2018-02-20T12:59:37.367Z,101393
2018-02-20T13:02:05.526Z,101393
2018-02-20T13:04:33.727Z,101399
2018-02-20T13:07:02.474Z,101399
2018-02-20T13:09:30.645Z,101403
2018-02-20T13:11:59.487Z,101402
2018-02-20T13:14:27.640Z,101400
2018-02-20T13:16:55.819Z,101407
2018-02-20T13:19:23.959Z,101405
2018-02-20T13:21:52.101Z,101407
2018-02-20T13:24:21.033Z,101407
2018-02-20T13:26:49.175Z,101411
2018-02-20T13:29:18.098Z,101409
2018-02-20T13:31:46.263Z,101412
2018-02-20T13:34:14.431Z,101402
2018-02-20T13:36:42.578Z,101417
2018-02-20T13:39:11.530Z,101412
2018-02-20T13:41:40.098Z,101403
2018-02-20T13:44:08.271Z,101421
2018-02-20T13:46:39.261Z,101417
2018-02-20T13:49:08.194Z,101419
2018-02-20T13:51:36.371Z,101423
2018-02-20T13:54:04.553Z,101425
2018-02-20T13:56:32.723Z,101429
2018-02-20T13:59:00.883Z,101434
2018-02-20T14:01:29.048Z,101430
2018-02-20T14:03:57.191Z,101430
2018-02-20T14:06:26.090Z,101436
2018-02-20T14:08:54.295Z,101427
2018-02-20T14:11:22.436Z,101434
2018-02-20T14:13:50.581Z,101430
2018-02-20T14:16:18.747Z,101448
2018-02-20T14:18:47.030Z,101435
2018-02-20T14:21:16.038Z,101435
2018-02-20T14:23:44.966Z,101429
2018-02-20T14:26:13.138Z,101436
2018-02-20T14:28:41.286Z,101426
2018-02-20T14:31:09.435Z,101432
2018-02-20T14:33:38.375Z,101425
2018-02-20T14:36:06.526Z,101427
2018-02-20T14:38:34.718Z,101424
2018-02-20T14:41:02.905Z,101436
2018-02-20T14:43:31.078Z,101433
2018-02-20T14:45:59.251Z,101425
2018-02-20T14:48:27.390Z,101431
2018-02-20T14:50:55.542Z,101431
2018-02-20T14:53:24.482Z,101435
2018-02-20T14:55:52.659Z,101426
2018-02-20T14:58:20.800Z,101431
2018-02-20T15:00:48.943Z,101426
2018-02-20T15:03:17.111Z,101440
2018-02-20T15:05:45.338Z,101436
2018-02-20T15:08:13.618Z,101438
2018-02-20T15:10:41.818Z,101438
2018-02-20T15:13:10.883Z,101434
2018-02-20T15:15:39.051Z,101438
2018-02-20T15:18:07.322Z,101441
2018-02-20T15:20:35.506Z,101443
2018-02-20T15:23:04.102Z,101451
2018-02-20T15:25:33.713Z,101445
2018-02-20T15:28:01.866Z,101446
2018-02-20T15:30:30.031Z,101444
2018-02-20T15:32:58.176Z,101452
2018-02-20T15:35:27.115Z,101452
2018-02-20T15:37:55.253Z,101448
2018-02-20T15:40:23.391Z,101458
2018-02-20T15:42:51.573Z,101457
2018-02-20T15:45:20.506Z,101459
2018-02-20T15:47:48.678Z,101465
2018-02-20T15:50:16.826Z,101469
2018-02-20T15:52:44.990Z,101467
2018-02-20T15:55:13.931Z,101468
2018-02-20T15:57:42.193Z,101474
2018-02-20T16:00:10.359Z,101486
2018-02-20T16:02:38.544Z,101485
2018-02-20T16:05:06.719Z,101477
2018-02-20T16:07:34.871Z,101486
2018-02-20T16:10:03.008Z,101491
2018-02-20T16:12:31.974Z,101488
2018-02-20T16:15:00.189Z,101494
2018-02-20T16:17:29.094Z,101496
2018-02-20T16:19:57.266Z,101503
2018-02-20T16:22:25.442Z,101500
2018-02-20T16:24:53.631Z,101505
2018-02-20T16:27:21.810Z,101497
2018-02-20T16:29:50.910Z,101503
2018-02-20T16:32:19.079Z,101502
2018-02-20T16:34:47.225Z,101507
2018-02-20T16:37:15.386Z,101518
2018-02-20T16:39:43.552Z,101503
2018-02-20T16:42:11.863Z,101509
2018-02-20T16:44:39.998Z,101515
2018-02-20T16:47:08.940Z,101532
2018-02-20T16:49:37.116Z,101525
2018-02-20T16:52:05.276Z,101523
2018-02-20T16:54:33.418Z,101531
2018-02-20T16:57:01.562Z,101527
2018-02-20T16:59:29.787Z,101530
2018-02-20T17:01:57.930Z,101528
2018-02-20T17:04:26.848Z,101538
2018-02-20T17:06:55.003Z,101533
2018-02-20T17:09:23.290Z,101543
2018-02-20T17:11:51.426Z,101540
2018-02-20T17:14:20.362Z,101554
2018-02-20T17:16:48.493Z,101544
2018-02-20T17:19:17.440Z,101544
2018-02-20T17:21:46.374Z,101548
2018-02-20T17:24:15.314Z,101548
2018-02-20T17:26:43.561Z,101555
2018-02-20T17:29:11.694Z,101550
2018-02-20T17:31:39.857Z,101554
2018-02-20T17:34:07.991Z,101551
2018-02-20T17:36:36.174Z,101559
2018-02-20T17:39:04.367Z,101556
2018-02-20T17:41:32.521Z,101561
2018-02-20T17:44:00.666Z,101567
2018-02-20T17:46:28.829Z,101568
2018-02-20T17:48:57.770Z,101567
2018-02-20T17:51:25.916Z,101580
2018-02-20T17:53:54.050Z,101569
2018-02-20T17:56:22.986Z,101571
2018-02-20T17:58:51.142Z,101563
2018-02-20T18:01:19.284Z,101564
2018-02-20T18:03:47.530Z,101560
2018-02-20T18:06:15.669Z,101571
2018-02-20T18:08:43.829Z,101571
2018-02-20T18:11:11.961Z,101572
2018-02-20T18:13:40.191Z,101576
2018-02-20T18:16:08.351Z,101578
2018-02-20T18:18:36.514Z,101581
2018-02-20T18:21:05.410Z,101592
2018-02-20T18:23:33.547Z,101600
2018-02-20T18:26:01.777Z,101594
2018-02-20T18:28:29.914Z,101607
2018-02-20T18:30:59.003Z,101617
2018-02-20T18:33:27.914Z,101615
2018-02-20T18:35:56.122Z,101615
2018-02-20T18:38:25.094Z,101612
2018-02-20T18:40:53.231Z,101613
2018-02-20T18:43:22.138Z,101596
2018-02-20T18:45:50.305Z,101619
2018-02-20T18:48:19.291Z,101632
2018-02-20T18:50:49.248Z,101619
2018-02-20T18:53:17.410Z,101625
2018-02-20T18:55:46.146Z,101615
2018-02-20T18:58:15.095Z,101632
2018-02-20T19:00:43.522Z,101628
2018-02-20T19:03:12.450Z,101621
2018-02-20T19:05:41.963Z,101625
2018-02-20T19:08:10.122Z,101631
2018-02-20T19:10:38.261Z,101639
2018-02-20T19:13:06.513Z,101640
2018-02-20T19:15:34.652Z,101640
2018-02-20T19:18:02.796Z,101643
2018-02-20T19:20:31.718Z,101645
2018-02-20T19:22:59.893Z,101650
2018-02-20T19:25:28.060Z,101660
2018-02-20T19:27:56.210Z,101654
2018-02-20T19:30:25.157Z,101654
2018-02-20T19:32:53.327Z,101659
2018-02-20T19:35:21.469Z,101654
2018-02-20T19:37:51.197Z,101653
2018-02-20T19:40:19.339Z,101652
2018-02-20T19:42:47.555Z,101657
2018-02-20T19:45:15.723Z,101658
2018-02-20T19:47:43.873Z,101654
2018-02-20T19:50:12.035Z,101659
2018-02-20T19:52:40.248Z,101660
2018-02-20T19:55:08.750Z,101653
2018-02-20T19:57:36.971Z,101651
2018-02-20T20:00:05.158Z,101655
2018-02-20T20:02:33.303Z,101657
2018-02-20T20:05:01.896Z,101658
2018-02-20T20:07:30.071Z,101652
2018-02-20T20:09:58.256Z,101657
2018-02-20T20:12:26.414Z,101665
2018-02-20T20:14:54.949Z,101659
2018-02-20T20:17:23.190Z,101656
2018-02-20T20:19:51.903Z,101662
2018-02-20T20:22:20.087Z,101669
2018-02-20T20:24:51.438Z,101673
2018-02-20T20:27:21.305Z,101668
2018-02-20T20:29:50.083Z,101667
2018-02-20T20:32:18.729Z,101676
2018-02-20T20:34:47.797Z,101675
2018-02-20T20:37:15.935Z,101685
2018-02-20T20:39:44.208Z,101682
2018-02-20T20:42:12.358Z,101685
2018-02-20T20:44:40.497Z,101692
2018-02-20T20:47:08.734Z,101698
2018-02-20T20:49:36.906Z,101694
2018-02-20T20:52:05.362Z,101688
2018-02-20T20:54:34.505Z,101694
2018-02-20T20:57:02.683Z,101695
2018-02-20T20:59:30.850Z,101700
2018-02-20T21:01:59.098Z,101695
2018-02-20T21:04:27.234Z,101688
2018-02-20T21:06:56.156Z,101697
2018-02-20T21:09:24.318Z,101687
2018-02-20T21:11:52.454Z,101696
2018-02-20T21:14:20.680Z,101688
2018-02-20T21:16:48.845Z,101686
2018-02-20T21:19:17.002Z,101687
2018-02-20T21:21:45.173Z,101694
2018-02-20T21:24:13.535Z,101692
2018-02-20T21:26:42.462Z,101693
2018-02-20T21:29:10.634Z,101695
2018-02-20T21:31:38.798Z,101688
2018-02-20T21:34:06.939Z,101692
2018-02-20T21:36:35.876Z,101718
2018-02-20T21:39:04.024Z,101708
2018-02-20T21:41:32.221Z,101711
2018-02-20T21:44:00.353Z,101712
2018-02-20T21:46:29.274Z,101712
2018-02-20T21:48:57.434Z,101699
2018-02-20T21:51:25.566Z,101712
2018-02-20T21:53:53.744Z,101697
2018-02-20T21:56:21.914Z,101711
2018-02-20T21:58:50.866Z,101703
2018-02-20T22:01:19.026Z,101698
2018-02-20T22:03:47.190Z,101706
2018-02-20T22:06:15.391Z,101714
2018-02-20T22:08:43.505Z,101715
2018-02-20T22:11:12.410Z,101713
2018-02-20T22:13:41.329Z,101719
2018-02-20T22:16:09.503Z,101717
2018-02-20T22:18:37.666Z,101722
2018-02-20T22:21:05.851Z,101716
2018-02-20T22:23:34.029Z,101723
2018-02-20T22:26:02.192Z,101722
2018-02-20T22:28:30.820Z,101725
2018-02-20T22:30:58.994Z,101728
2018-02-20T22:33:27.136Z,101733
2018-02-20T22:35:55.265Z,101733
2018-02-20T22:38:24.215Z,101736
2018-02-20T22:40:52.355Z,101739
2018-02-20T22:43:20.494Z,101731
2018-02-20T22:45:49.417Z,101737
2018-02-20T22:48:17.565Z,101733
2018-02-20T22:50:46.514Z,101742
2018-02-20T22:53:14.645Z,101740
2018-02-20T22:55:42.777Z,101739
2018-02-20T22:58:10.955Z,101740
2018-02-20T23:00:39.096Z,101734
2018-02-20T23:03:07.253Z,101736
2018-02-20T23:05:35.410Z,101736
2018-02-20T23:08:03.566Z,101738
2018-02-20T23:10:31.700Z,101734
2018-02-20T23:12:59.858Z,101747
2018-02-20T23:15:28.031Z,101741
2018-02-20T23:17:56.168Z,101750
2018-02-20T23:20:24.338Z,101753
2018-02-20T23:22:52.482Z,101750
2018-02-20T23:25:21.386Z,101743
2018-02-20T23:27:51.133Z,101748
2018-02-20T23:30:19.286Z,101752
2018-02-20T23:32:47.426Z,101748
2018-02-20T23:35:16.352Z,101752
2018-02-20T23:37:44.518Z,101752
2018-02-20T23:40:12.650Z,101755
2018-02-20T23:42:41.802Z,101764
2018-02-20T23:45:10.059Z,101755
2018-02-20T23:47:38.202Z,101765
2018-02-20T23:50:07.109Z,101762
2018-02-20T23:52:36.131Z,101768
2018-02-20T23:55:04.262Z,101779
2018-02-20T23:57:32.422Z,101781
